Serenade Of The Seas — C6FV8 — position and weather

sailwx.info

Track history (hours):
 
Tides and Currents Weather Stations Pressure Air Temp Water Temp Dewpoint Dewpoint Depression Visibility Wind Speed Wind Dir Waves Ship Positions

Serenade Of The Seas

Operator: Royal Caribbean Cruises Ltd

Last reported at 2019-Nov-20 06:00 UTC. Time now 2019-Nov-20 09:11 UTC.
Position N 22°48' W 072°06'.

Length 294 m; draft 8.6 m.

Type: Ship. MMSI: 311492000.

Wind from 010 at 17 knots

Barometer 1009.0 mb
Air temperature 27.4 ° C
Water temperature 28.6 ° C

Date/timePositionNaut miles runAvg speedWind from/ knotsBaromVisibWave heightAir tempDewpointWater temp
2019-Nov-20 06:00N 22°48' W 072°06'17914.9 010 / 171009.0 27.4 28.6
2019-Nov-19 18:00N 24°36' W 074°42'18515.5 300 / 151009.010.8 28.015.029.0
2019-Nov-19 06:00N 25°54' W 077°48'8714.5 300 / 81007.0 22.9 27.8
2019-Nov-19 00:00N 26°06' W 079°24'1325.5 300 / 161007.0 23.0
2019-Nov-18 23:30N 26°10' W 079°37'1515.2
2019-Nov-18 22:30N 26°07' W 079°53'815.2
2019-Nov-18 22:00N 26°06' W 080°02'5 9.5
2019-Nov-18 21:30N 26°05' W 080°07'0 0.2
2019-Nov-18 20:30N 26°05' W 080°07'0 0.0
2019-Nov-18 20:00N 26°05' W 080°07'0 0.0
2019-Nov-18 19:30N 26°05' W 080°07'0 0.0
2019-Nov-18 16:00N 26°05' W 080°07'0 0.0
2019-Nov-18 15:30N 26°05' W 080°07'0 0.0
2019-Nov-18 13:00N 26°05' W 080°07'0 0.0
2019-Nov-18 12:30N 26°05' W 080°07'0 0.0
2019-Nov-18 11:00N 26°05' W 080°07'2 1.1
2019-Nov-18 09:30N 26°06' W 080°05'23114.9
2019-Nov-17 18:00N 23°18' W 083°00'9515.9 010 / 281007.0 26.0
2019-Nov-17 12:00N 22°42' W 084°36'9014.9 360 / 231008.0 24.9 29.2
2019-Nov-17 06:00N 21°42' W 085°48'9811.6 340 / 201008.0 25.5 29.7
2019-Nov-16 21:29N 20°29' W 086°59'0 0.0
2019-Nov-16 20:23N 20°29' W 086°59'0 0.0
2019-Nov-16 19:29N 20°29' W 086°59'0 0.0
2019-Nov-16 18:59N 20°29' W 086°59'0 0.0
2019-Nov-16 18:29N 20°29' W 086°59'0 0.0
2019-Nov-16 17:29N 20°29' W 086°59'0 0.0
2019-Nov-16 16:59N 20°29' W 086°59'0 0.0
2019-Nov-16 15:56N 20°29' W 086°59'0 0.0
2019-Nov-16 15:29N 20°29' W 086°59'4111.7
2019-Nov-16 12:00N 19°48' W 087°00'11619.4 020 / 301009.0 25.4 29.7
2019-Nov-16 06:00N 17°54' W 087°24'21 1.2 360 / 241008.0 26.6 29.9
2019-Nov-15 12:00N 17°42' W 087°42'9716.1 320 / 301011.0 25.0 29.9
2019-Nov-15 06:00N 19°00' W 086°42'18015.0 260 / 81010.0 27.7 30.1
2019-Nov-14 18:00N 21°42' W 085°18'9415.6 110 / 181010.0 5.4 28.022.628.0
2019-Nov-14 12:00N 22°48' W 084°06'9015.0 120 / 191011.0 25.6 29.2
2019-Nov-14 06:00N 23°24' W 082°36'147 6.1 100 / 151011.0 26.4 29.2
2019-Nov-13 06:00N 24°48' W 080°24'3611.9 330 / 181009.0 25.4 29.0
2019-Nov-13 03:00N 25°18' W 080°03'612.5
2019-Nov-13 02:30N 25°24' W 080°01'713.1
2019-Nov-13 02:00N 25°30' W 080°00'2713.5
2019-Nov-13 00:01N 25°57' W 080°02'714.7
2019-Nov-12 23:31N 26°05' W 080°03'4 2.7
2019-Nov-12 22:00N 26°05' W 080°07'0 0.0
2019-Nov-12 18:00N 26°05' W 080°07'0 0.0
2019-Nov-12 15:30N 26°05' W 080°07'0 0.0
2019-Nov-12 15:00N 26°05' W 080°07'0 0.0
2019-Nov-12 14:00N 26°05' W 080°07'0 0.0
2019-Nov-12 13:30N 26°05' W 080°07'0 0.0
2019-Nov-12 13:00N 26°05' W 080°07'0 0.0
2019-Nov-12 12:00N 26°05' W 080°07'0 0.0
2019-Nov-12 11:27N 26°05' W 080°07'8 5.5
2019-Nov-12 10:00N 26°06' W 079°58'8 7.7
2019-Nov-12 09:00N 26°06' W 079°50'14 9.5
2019-Nov-12 07:31N 25°51' W 079°50'14 9.6
2019-Nov-12 06:00N 25°37' W 079°50'13 5.0
2019-Nov-12 03:30N 25°41' W 079°37'6 5.6
2019-Nov-12 02:30N 25°46' W 079°35'6 5.7
2019-Nov-12 01:30N 25°52' W 079°34'9 6.1
2019-Nov-12 00:00N 26°01' W 079°31'2195.5
2019-Nov-12 00:00N 26°00' W 079°30'17 6.9 110 / 181011.0 25.9 29.0
2019-Nov-11 21:30N 26°17' W 079°26'19 5.5
2019-Nov-11 18:00N 26°36' W 079°24'52 1.7 080 / 141013.010.8 29.020.029.0
2019-Nov-10 12:00N 26°06' W 078°36'5117.0 060 / 251011.0 25.0 29.0
2019-Nov-10 09:00N 25°46' W 079°28'  
Track history (hours):
 
Tides and Currents Weather Stations Pressure Air Temp Water Temp Dewpoint Dewpoint Depression Visibility Wind Speed Wind Dir Waves Ship Positions

Serenade Of The Seas

Operator: Royal Caribbean Cruises Ltd

Last reported at 2019-Nov-20 06:00 UTC. Time now 2019-Nov-20 09:11 UTC.
Position N 22°48' W 072°06'.

Length 294 m; draft 8.6 m.

Type: Ship. MMSI: 311492000.

Wind from 010 at 17 knots

Barometer 1009.0 mb
Air temperature 27.4 ° C
Water temperature 28.6 ° C

Date/timePositionNaut miles runAvg speedWind from/ knotsBaromVisibWave heightAir tempDewpointWater temp
2019-Nov-20 06:00N 22°48' W 072°06'17914.9 010 / 171009.0 27.4 28.6
2019-Nov-19 18:00N 24°36' W 074°42'18515.5 300 / 151009.010.8 28.015.029.0
2019-Nov-19 06:00N 25°54' W 077°48'8714.5 300 / 81007.0 22.9 27.8
2019-Nov-19 00:00N 26°06' W 079°24'1325.5 300 / 161007.0 23.0
2019-Nov-18 23:30N 26°10' W 079°37'1515.2
2019-Nov-18 22:30N 26°07' W 079°53'815.2
2019-Nov-18 22:00N 26°06' W 080°02'5 9.5
2019-Nov-18 21:30N 26°05' W 080°07'0 0.2
2019-Nov-18 20:30N 26°05' W 080°07'0 0.0
2019-Nov-18 20:00N 26°05' W 080°07'0 0.0
2019-Nov-18 19:30N 26°05' W 080°07'0 0.0
2019-Nov-18 16:00N 26°05' W 080°07'0 0.0
2019-Nov-18 15:30N 26°05' W 080°07'0 0.0
2019-Nov-18 13:00N 26°05' W 080°07'0 0.0
2019-Nov-18 12:30N 26°05' W 080°07'0 0.0
2019-Nov-18 11:00N 26°05' W 080°07'2 1.1
2019-Nov-18 09:30N 26°06' W 080°05'23114.9
2019-Nov-17 18:00N 23°18' W 083°00'9515.9 010 / 281007.0 26.0
2019-Nov-17 12:00N 22°42' W 084°36'9014.9 360 / 231008.0 24.9 29.2
2019-Nov-17 06:00N 21°42' W 085°48'9811.6 340 / 201008.0 25.5 29.7
2019-Nov-16 21:29N 20°29' W 086°59'0 0.0
2019-Nov-16 20:23N 20°29' W 086°59'0 0.0
2019-Nov-16 19:29N 20°29' W 086°59'0 0.0
2019-Nov-16 18:59N 20°29' W 086°59'0 0.0
2019-Nov-16 18:29N 20°29' W 086°59'0 0.0
2019-Nov-16 17:29N 20°29' W 086°59'0 0.0
2019-Nov-16 16:59N 20°29' W 086°59'0 0.0
2019-Nov-16 15:56N 20°29' W 086°59'0 0.0
2019-Nov-16 15:29N 20°29' W 086°59'4111.7
2019-Nov-16 12:00N 19°48' W 087°00'11619.4 020 / 301009.0 25.4 29.7
2019-Nov-16 06:00N 17°54' W 087°24'21 1.2 360 / 241008.0 26.6 29.9
2019-Nov-15 12:00N 17°42' W 087°42'9716.1 320 / 301011.0 25.0 29.9
2019-Nov-15 06:00N 19°00' W 086°42'18015.0 260 / 81010.0 27.7 30.1
2019-Nov-14 18:00N 21°42' W 085°18'9415.6 110 / 181010.0 5.4 28.022.628.0
2019-Nov-14 12:00N 22°48' W 084°06'9015.0 120 / 191011.0 25.6 29.2
2019-Nov-14 06:00N 23°24' W 082°36'147 6.1 100 / 151011.0 26.4 29.2
2019-Nov-13 06:00N 24°48' W 080°24'3611.9 330 / 181009.0 25.4 29.0
2019-Nov-13 03:00N 25°18' W 080°03'612.5
2019-Nov-13 02:30N 25°24' W 080°01'713.1
2019-Nov-13 02:00N 25°30' W 080°00'2713.5
2019-Nov-13 00:01N 25°57' W 080°02'714.7
2019-Nov-12 23:31N 26°05' W 080°03'4 2.7
2019-Nov-12 22:00N 26°05' W 080°07'0 0.0
2019-Nov-12 18:00N 26°05' W 080°07'0 0.0
2019-Nov-12 15:30N 26°05' W 080°07'0 0.0
2019-Nov-12 15:00N 26°05' W 080°07'0 0.0
2019-Nov-12 14:00N 26°05' W 080°07'0 0.0
2019-Nov-12 13:30N 26°05' W 080°07'0 0.0
2019-Nov-12 13:00N 26°05' W 080°07'0 0.0
2019-Nov-12 12:00N 26°05' W 080°07'0 0.0
2019-Nov-12 11:27N 26°05' W 080°07'8 5.5
2019-Nov-12 10:00N 26°06' W 079°58'8 7.7
2019-Nov-12 09:00N 26°06' W 079°50'14 9.5
2019-Nov-12 07:31N 25°51' W 079°50'14 9.6
2019-Nov-12 06:00N 25°37' W 079°50'13 5.0
2019-Nov-12 03:30N 25°41' W 079°37'6 5.6
2019-Nov-12 02:30N 25°46' W 079°35'6 5.7
2019-Nov-12 01:30N 25°52' W 079°34'9 6.1
2019-Nov-12 00:00N 26°01' W 079°31'2195.5
2019-Nov-12 00:00N 26°00' W 079°30'17 6.9 110 / 181011.0 25.9 29.0
2019-Nov-11 21:30N 26°17' W 079°26'19 5.5
2019-Nov-11 18:00N 26°36' W 079°24'52 1.7 080 / 141013.010.8 29.020.029.0
2019-Nov-10 12:00N 26°06' W 078°36'5117.0 060 / 251011.0 25.0 29.0
2019-Nov-10 09:00N 25°46' W 079°28'  

Dump ship's entire track history